Time;durP1;ratioP1;P1;durP2;ratioP2;P2;SDS_P1;SDS_P2;PMS_P1;PMS_P2;Temp;Humidity;BMP_temperature;BMP_pressure;BME280_temperature;BME280_humidity;BME280_pressure;Samples;Min_cycle;Max_cycle;Signal;HPM_P1;HPM_P2
2022/08/31 00:04:01;;;;;;;;;;;;;;;17.73;87.84;102053.09;5036036;28;20351;-43
2022/08/31 00:06:27;;;;;;;;;;;;;;;17.68;88.21;102053.66;5035064;28;20438;-42
2022/08/31 00:08:52;;;;;;;;;;;;;;;17.61;87.23;102052.66;5036335;28;19912;-43
2022/08/31 00:11:26;;;;;;;;;;;;;;;17.55;85.99;102045.28;5035849;28;19900;-44
2022/08/31 00:13:52;;;;;;;;;;;;;;;17.53;88.68;102050.88;5035194;28;20347;-46
2022/08/31 00:16:17;;;;;;;;;;;;;;;17.50;85.54;102045.81;5034771;28;20042;-46
2022/08/31 00:18:42;;;;;;;;;;;;;;;17.48;82.89;102055.97;5036293;28;19962;-46
2022/08/31 00:21:07;;;;;;;;;;;;;;;17.47;85.75;102051.56;5035055;28;20074;-41
2022/08/31 00:23:32;;;;;;;;;;;;;;;17.45;90.62;102053.59;5035474;28;19952;-43
2022/08/31 00:25:57;;;;;;;;;;;;;;;17.44;88.63;102057.31;5029024;28;19901;-43
2022/08/31 00:28:23;;;;;;;;;;;;;;;17.44;86.08;102054.59;5033519;28;19912;-44
2022/08/31 00:30:48;;;;;;;;;;;;;;;17.44;86.94;102048.38;5034519;28;19901;-46
2022/08/31 00:33:14;;;;;;;;;;;;;;;17.41;90.22;102051.44;5036286;28;19922;-44
2022/08/31 00:35:40;;;;;;;;;;;;;;;17.35;86.43;102050.28;5035272;28;20376;-45
2022/08/31 00:38:06;;;;;;;;;;;;;;;17.33;86.12;102049.63;5034145;28;20400;-44
2022/08/31 00:40:32;;;;;;;;;;;;;;;17.28;89.60;102047.44;5035994;28;19943;-46
2022/08/31 00:42:58;;;;;;;;;;;;;;;17.22;90.69;102044.59;5034361;28;19986;-44
2022/08/31 00:45:23;;;;;;;;;;;;;;;17.19;88.32;102053.03;5034593;28;19944;-45
2022/08/31 00:47:48;;;;;;;;;;;;;;;17.14;93.27;102051.72;5035208;28;19913;-46
2022/08/31 00:50:15;;;;;;;;;;;;;;;17.11;90.09;102045.84;5035467;28;19979;-47
2022/08/31 00:52:44;;;;;;;;;;;;;;;17.08;88.42;102043.50;5020940;28;19908;-46
2022/08/31 00:55:15;;;;;;;;;;;;;;;17.04;88.02;102043.00;5037496;28;20064;-44
2022/08/31 00:57:41;;;;;;;;;;;;;;;17.02;87.13;102042.31;5033924;28;20004;-45
2022/08/31 01:00:09;;;;;;;;;;;;;;;17.01;86.53;102040.63;5028194;28;19923;-44
2022/08/31 01:02:34;;;;;;;;;;;;;;;16.98;90.19;102046.38;5038785;28;20015;-42
2022/08/31 01:05:00;;;;;;;;;;;;;;;16.96;87.89;102043.03;5039521;28;20011;-42
2022/08/31 01:07:26;;;;;;;;;;;;;;;16.88;88.89;102040.34;5038730;28;19917;-45
2022/08/31 01:09:51;;;;;;;;;;;;;;;16.88;88.86;102043.88;5039735;28;20223;-45
2022/08/31 01:12:16;;;;;;;;;;;;;;;16.84;90.50;102037.16;5037204;28;20004;-44
2022/08/31 01:14:41;;;;;;;;;;;;;;;16.81;90.62;102042.88;5038692;28;20151;-45
2022/08/31 01:17:07;;;;;;;;;;;;;;;16.76;91.94;102037.97;5062479;28;19947;-43
2022/08/31 01:19:35;;;;;;;;;;;;;;;16.73;89.93;102042.88;5034914;28;20418;-45
2022/08/31 01:22:08;;;;;;;;;;;;;;;16.73;89.00;102042.88;5038649;28;20570;-43
2022/08/31 01:24:34;;;;;;;;;;;;;;;16.71;91.61;102043.06;5039423;28;19905;-44
2022/08/31 01:27:03;;;;;;;;;;;;;;;16.69;91.72;102039.69;5039139;28;19915;-45
2022/08/31 01:29:28;;;;;;;;;;;;;;;16.67;91.78;102036.31;5037638;28;19913;-41
2022/08/31 01:31:54;;;;;;;;;;;;;;;16.66;90.29;102041.88;5038587;28;19920;-44
2022/08/31 01:34:19;;;;;;;;;;;;;;;16.63;93.64;102039.53;5038340;28;19920;-41
2022/08/31 01:36:46;;;;;;;;;;;;;;;16.57;93.48;102032.97;5037833;28;19919;-43
2022/08/31 01:39:12;;;;;;;;;;;;;;;16.55;92.45;102049.34;5034031;28;19909;-43
2022/08/31 01:41:42;;;;;;;;;;;;;;;16.54;94.96;102039.53;5038622;28;19909;-43
2022/08/31 01:44:08;;;;;;;;;;;;;;;16.54;95.24;102038.72;5036608;28;19913;-43
2022/08/31 01:46:34;;;;;;;;;;;;;;;16.52;92.31;102044.28;5037779;28;19923;-42
2022/08/31 01:48:59;;;;;;;;;;;;;;;16.51;91.96;102041.75;5039013;28;19909;-46
2022/08/31 01:51:24;;;;;;;;;;;;;;;16.50;92.57;102053.56;5029073;28;20148;-44
2022/08/31 01:53:50;;;;;;;;;;;;;;;16.50;91.32;102053.56;5032455;28;19908;-46
2022/08/31 01:56:20;;;;;;;;;;;;;;;16.47;91.97;102043.13;5038925;28;19963;-47
2022/08/31 01:58:46;;;;;;;;;;;;;;;16.46;93.16;102047.63;5036486;28;20233;-46
2022/08/31 02:01:11;;;;;;;;;;;;;;;16.44;96.46;102043.44;5037233;28;20011;-46
2022/08/31 02:03:36;;;;;;;;;;;;;;;16.42;94.38;102043.63;5038648;28;19955;-46
2022/08/31 02:06:05;;;;;;;;;;;;;;;16.43;94.34;102031.81;5036530;28;19948;-43
2022/08/31 02:08:31;;;;;;;;;;;;;;;16.40;91.19;102038.38;5039293;28;19908;-43
2022/08/31 02:10:57;;;;;;;;;;;;;;;16.41;94.58;102047.31;5036916;28;19920;-44
2022/08/31 02:13:22;;;;;;;;;;;;;;;16.37;97.35;102038.72;5037509;28;20947;-46
2022/08/31 02:15:47;;;;;;;;;;;;;;;16.36;96.15;102044.28;5026280;28;20163;-44
2022/08/31 02:18:12;;;;;;;;;;;;;;;16.33;98.00;102034.69;5020348;28;19915;-43
2022/08/31 02:20:38;;;;;;;;;;;;;;;16.30;95.84;102043.13;5021360;28;19913;-44
2022/08/31 02:23:03;;;;;;;;;;;;;;;16.32;94.16;102035.69;5032631;28;19987;-42
2022/08/31 02:25:28;;;;;;;;;;;;;;;16.29;95.53;102037.91;5022238;28;20373;-43
2022/08/31 02:27:54;;;;;;;;;;;;;;;16.29;94.87;102051.38;5036926;28;20367;-43
2022/08/31 02:30:19;;;;;;;;;;;;;;;16.27;91.92;102040.75;5036845;28;20106;-44
2022/08/31 02:32:44;;;;;;;;;;;;;;;16.27;93.92;102045.31;5034006;28;19967;-46
2022/08/31 02:35:10;;;;;;;;;;;;;;;16.25;93.12;102050.88;5026617;28;20332;-45
2022/08/31 02:37:35;;;;;;;;;;;;;;;16.24;95.89;102046.47;5037336;28;19908;-46
2022/08/31 02:40:01;;;;;;;;;;;;;;;16.22;95.13;102054.75;5037886;28;20000;-44
2022/08/31 02:42:27;;;;;;;;;;;;;;;16.17;96.17;102051.72;5036702;28;20307;-46
2022/08/31 02:44:53;;;;;;;;;;;;;;;16.14;95.42;102045.81;5037283;28;20366;-45
2022/08/31 02:47:18;;;;;;;;;;;;;;;16.10;97.67;102052.56;5037354;28;20680;-46
2022/08/31 02:49:43;;;;;;;;;;;;;;;16.07;93.78;102051.03;5034559;28;19943;-42
2022/08/31 02:52:08;;;;;;;;;;;;;;;16.03;95.27;102041.59;5024387;28;19909;-42
2022/08/31 02:54:33;;;;;;;;;;;;;;;16.04;93.75;102044.13;5037731;28;19920;-43
2022/08/31 02:56:59;;;;;;;;;;;;;;;16.02;95.22;102042.59;5037180;28;19912;-42
2022/08/31 02:59:24;;;;;;;;;;;;;;;16.03;94.73;102045.13;5037384;28;19913;-42
2022/08/31 03:01:51;;;;;;;;;;;;;;;15.98;97.29;102047.50;5036041;28;19959;-44
2022/08/31 03:04:16;;;;;;;;;;;;;;;15.97;94.98;102047.66;5037913;28;19973;-44
2022/08/31 03:06:42;;;;;;;;;;;;;;;15.96;94.83;102046.00;5036635;28;20348;-41
2022/08/31 03:09:07;;;;;;;;;;;;;;;15.92;94.50;102045.47;5028047;28;19917;-44
2022/08/31 03:11:32;;;;;;;;;;;;;;;15.93;96.19;102049.84;5036248;28;19998;-44
2022/08/31 03:13:57;;;;;;;;;;;;;;;15.90;94.18;102047.47;5036377;28;19916;-43
2022/08/31 03:16:22;;;;;;;;;;;;;;;15.87;94.33;102044.28;5035731;28;20208;-42
2022/08/31 03:18:48;;;;;;;;;;;;;;;15.83;96.00;102044.63;5035436;28;19909;-43
2022/08/31 03:21:13;;;;;;;;;;;;;;;15.78;97.17;102043.44;5037003;28;20355;-43
2022/08/31 03:23:38;;;;;;;;;;;;;;;15.77;94.45;102045.28;5036772;28;19908;-44
2022/08/31 03:26:04;;;;;;;;;;;;;;;15.75;96.01;102043.72;5023195;28;20168;-43
2022/08/31 03:28:31;;;;;;;;;;;;;;;15.73;94.58;102048.44;5036144;28;20361;-47
2022/08/31 03:30:56;;;;;;;;;;;;;;;15.69;95.87;102044.41;5034874;28;19943;-42
2022/08/31 03:33:21;;;;;;;;;;;;;;;15.69;96.32;102047.09;5036672;28;20325;-43
2022/08/31 03:35:46;;;;;;;;;;;;;;;15.65;97.44;102042.03;5035934;28;20018;-42
2022/08/31 03:38:11;;;;;;;;;;;;;;;15.62;96.67;102047.75;5036658;28;19908;-45
2022/08/31 03:40:38;;;;;;;;;;;;;;;15.57;95.25;102044.72;5036219;28;20054;-43
2022/08/31 03:43:03;;;;;;;;;;;;;;;15.55;95.25;102049.41;5036021;28;19909;-42
2022/08/31 03:45:30;;;;;;;;;;;;;;;15.51;95.19;102044.53;5036222;28;20367;-42
2022/08/31 03:47:56;;;;;;;;;;;;;;;15.47;97.00;102052.09;5035851;28;20387;-42
2022/08/31 03:50:21;;;;;;;;;;;;;;;15.43;98.07;102050.75;5036270;28;19924;-46
2022/08/31 03:52:46;;;;;;;;;;;;;;;15.42;98.04;102049.88;5024492;28;19909;-47
2022/08/31 03:55:12;;;;;;;;;;;;;;;15.39;97.37;102047.50;5029369;28;20006;-43
2022/08/31 03:57:37;;;;;;;;;;;;;;;15.39;95.89;102055.59;5015797;28;19916;-43
2022/08/31 04:00:03;;;;;;;;;;;;;;;15.33;97.47;102050.88;5016146;28;19916;-43
2022/08/31 04:02:28;;;;;;;;;;;;;;;15.33;95.81;102050.88;5015843;28;19913;-45
2022/08/31 04:04:54;;;;;;;;;;;;;;;15.30;95.07;102051.19;5015775;28;19909;-44
2022/08/31 04:07:19;;;;;;;;;;;;;;;15.26;97.19;102049.84;5015970;28;19943;-44
2022/08/31 04:09:45;;;;;;;;;;;;;;;15.25;96.85;102048.97;5016081;28;19912;-42
2022/08/31 04:12:10;;;;;;;;;;;;;;;15.24;96.12;102057.22;5014344;28;20126;-44
2022/08/31 04:14:36;;;;;;;;;;;;;;;15.20;96.10;102056.69;5015375;28;19919;-44
2022/08/31 04:17:01;;;;;;;;;;;;;;;15.17;96.90;102057.00;5021688;28;19913;-42
2022/08/31 04:19:26;;;;;;;;;;;;;;;15.16;94.17;102059.91;5016181;28;20189;-41
2022/08/31 04:21:51;;;;;;;;;;;;;;;15.13;94.96;102063.75;5015534;28;20416;-45
2022/08/31 04:24:17;;;;;;;;;;;;;;;15.14;94.19;102053.81;5016535;28;20168;-44
2022/08/31 04:26:42;;;;;;;;;;;;;;;15.10;95.89;102059.53;5027012;28;19910;-45
2022/08/31 04:29:07;;;;;;;;;;;;;;;15.06;97.34;102060.84;5032381;28;20462;-43
2022/08/31 04:31:34;;;;;;;;;;;;;;;15.05;95.34;102066.38;5024635;28;20151;-42
2022/08/31 04:33:59;;;;;;;;;;;;;;;15.05;94.03;102069.94;5036415;28;20196;-45
2022/08/31 04:36:25;;;;;;;;;;;;;;;15.05;94.02;102061.00;5034226;28;20447;-44
2022/08/31 04:38:51;;;;;;;;;;;;;;;15.01;94.46;102056.97;5035867;28;20406;-43
2022/08/31 04:41:18;;;;;;;;;;;;;;;14.99;92.99;102069.75;5035643;28;19909;-46
2022/08/31 04:43:45;;;;;;;;;;;;;;;14.97;93.75;102069.03;5035312;28;19915;-44
2022/08/31 04:46:10;;;;;;;;;;;;;;;14.96;92.70;102062.81;5032877;28;19915;-45
2022/08/31 04:48:36;;;;;;;;;;;;;;;14.94;93.13;102064.00;5034571;28;19908;-43
2022/08/31 04:51:02;;;;;;;;;;;;;;;14.92;93.88;102066.84;5034812;28;20233;-41
2022/08/31 04:53:27;;;;;;;;;;;;;;;14.89;93.96;102068.00;5067732;28;19909;-41
2022/08/31 04:55:52;;;;;;;;;;;;;;;14.89;94.29;102069.84;5035380;28;20303;-43
2022/08/31 04:58:19;;;;;;;;;;;;;;;14.85;93.89;102071.16;5033355;28;19908;-43
2022/08/31 05:00:44;;;;;;;;;;;;;;;14.83;94.12;102073.16;5035190;28;19996;-41
2022/08/31 05:03:09;;;;;;;;;;;;;;;14.77;95.33;102071.97;5035334;28;20003;-41
2022/08/31 05:05:38;;;;;;;;;;;;;;;14.73;94.88;102070.56;5035177;28;19984;-41
2022/08/31 05:08:04;;;;;;;;;;;;;;;14.68;94.87;102059.44;5035368;28;19917;-42
2022/08/31 05:10:29;;;;;;;;;;;;;;;14.70;93.76;102065.53;5035423;28;19908;-47
2022/08/31 05:12:55;;;;;;;;;;;;;;;14.69;94.40;102067.34;5033735;28;19908;-44
2022/08/31 05:15:20;;;;;;;;;;;;;;;14.68;92.83;102076.44;5034697;28;20495;-42
2022/08/31 05:17:45;;;;;;;;;;;;;;;14.69;93.14;102075.44;5035941;28;19908;-44
2022/08/31 05:20:10;;;;;;;;;;;;;;;14.69;93.85;102077.28;5035704;28;19920;-43
2022/08/31 05:22:35;;;;;;;;;;;;;;;14.68;92.54;102080.97;5035080;28;20151;-42
2022/08/31 05:25:00;;;;;;;;;;;;;;;14.67;93.54;102081.97;5024004;28;20430;-42
2022/08/31 05:27:26;;;;;;;;;;;;;;;14.68;94.91;102083.66;5032060;28;19909;-45
2022/08/31 05:29:51;;;;;;;;;;;;;;;14.68;94.08;102084.50;5035599;28;19908;-43
2022/08/31 05:32:16;;;;;;;;;;;;;;;14.67;92.30;102095.41;5034223;28;19912;-44
2022/08/31 05:34:42;;;;;;;;;;;;;;;14.67;92.82;102088.19;5034829;28;20358;-44
2022/08/31 05:37:07;;;;;;;;;;;;;;;14.68;93.02;102103.34;5014293;28;19921;-44
2022/08/31 05:39:32;;;;;;;;;;;;;;;14.69;92.40;102096.09;5015570;28;19909;-44
2022/08/31 05:41:57;;;;;;;;;;;;;;;14.70;91.49;102087.88;5025266;28;19959;-44
2022/08/31 05:44:23;;;;;;;;;;;;;;;14.71;93.03;102099.47;5019815;28;20324;-44
2022/08/31 05:46:48;;;;;;;;;;;;;;;14.72;92.92;102093.09;5028850;28;19912;-43
2022/08/31 05:49:14;;;;;;;;;;;;;;;14.74;92.02;102104.53;5025663;28;20419;-45
2022/08/31 05:51:39;;;;;;;;;;;;;;;14.74;93.11;102094.63;5034341;28;19969;-46
2022/08/31 05:54:05;;;;;;;;;;;;;;;14.78;92.88;102103.22;5035720;28;19970;-46
2022/08/31 05:56:30;;;;;;;;;;;;;;;14.74;91.71;102093.78;5026084;28;19913;-43
2022/08/31 05:58:56;;;;;;;;;;;;;;;14.78;91.62;102103.22;5017958;28;19909;-44
2022/08/31 06:01:23;;;;;;;;;;;;;;;14.81;92.07;102097.53;5017426;28;20025;-47
2022/08/31 06:03:48;;;;;;;;;;;;;;;14.81;93.03;102097.53;5018686;28;20425;-42
2022/08/31 06:06:14;;;;;;;;;;;;;;;14.82;92.58;102099.22;5017877;28;19909;-43
2022/08/31 06:08:40;;;;;;;;;;;;;;;14.85;92.61;102101.59;5017740;28;19916;-46
2022/08/31 06:11:06;;;;;;;;;;;;;;;14.88;92.06;102106.66;5017813;28;19909;-46
2022/08/31 06:13:31;;;;;;;;;;;;;;;14.89;92.24;102104.81;5016463;28;19932;-46
2022/08/31 06:15:59;;;;;;;;;;;;;;;14.92;92.17;102117.94;5014719;28;19940;-43
2022/08/31 06:18:24;;;;;;;;;;;;;;;14.97;92.33;102114.75;5017797;28;20400;-44
2022/08/31 06:20:59;;;;;;;;;;;;;;;15.01;91.41;102116.97;5017609;28;19917;-43
2022/08/31 06:23:24;;;;;;;;;;;;;;;15.03;91.78;102114.13;5017577;28;19909;-45
2022/08/31 06:25:49;;;;;;;;;;;;;;;15.04;92.16;102116.66;5017212;28;20502;-44
2022/08/31 06:28:15;;;;;;;;;;;;;;;15.08;91.64;102125.25;5024411;28;19909;-46
2022/08/31 06:30:40;;;;;;;;;;;;;;;15.09;91.50;102119.72;5022777;28;20037;-43
2022/08/31 06:33:05;;;;;;;;;;;;;;;15.09;90.87;102118.88;5018233;28;19920;-44
2022/08/31 06:35:31;;;;;;;;;;;;;;;15.08;90.72;102112.66;5021392;28;19982;-47
2022/08/31 06:37:56;;;;;;;;;;;;;;;15.10;91.02;102118.72;5016950;28;20338;-45
2022/08/31 06:40:23;;;;;;;;;;;;;;;15.19;90.65;102124.13;5017955;28;19909;-46
2022/08/31 06:42:48;;;;;;;;;;;;;;;15.26;89.85;102128.72;5016570;28;19956;-44
2022/08/31 06:45:13;;;;;;;;;;;;;;;15.33;89.25;102130.78;5016956;28;19952;-43
2022/08/31 06:47:39;;;;;;;;;;;;;;;15.39;90.03;102130.97;5019472;28;19987;-45
2022/08/31 06:50:04;;;;;;;;;;;;;;;15.53;88.54;102131.34;5017243;28;19913;-45
2022/08/31 06:52:30;;;;;;;;;;;;;;;15.60;87.75;102133.25;5016938;28;19920;-43
2022/08/31 06:54:55;;;;;;;;;;;;;;;15.73;87.01;102131.94;5017286;28;20037;-45
2022/08/31 06:57:21;;;;;;;;;;;;;;;15.85;86.85;102131.50;5016435;28;19908;-42
2022/08/31 06:59:46;;;;;;;;;;;;;;;15.98;85.41;102136.41;5019087;28;19913;-44
2022/08/31 07:02:11;;;;;;;;;;;;;;;16.11;85.57;102143.19;5017451;28;19909;-43
2022/08/31 07:04:37;;;;;;;;;;;;;;;16.31;86.15;102154.47;5032671;28;20386;-43
2022/08/31 07:07:07;;;;;;;;;;;;;;;16.58;83.82;102143.41;5016886;28;19959;-50
2022/08/31 07:09:33;;;;;;;;;;;;;;;16.78;82.72;102153.81;5017666;28;19931;-44
2022/08/31 07:11:58;;;;;;;;;;;;;;;16.94;81.54;102153.00;5016395;28;20156;-43
2022/08/31 07:14:24;;;;;;;;;;;;;;;17.11;81.67;102151.94;5017097;28;19917;-43
2022/08/31 07:16:52;;;;;;;;;;;;;;;17.26;80.72;102151.22;5016207;28;19948;-42
2022/08/31 07:19:17;;;;;;;;;;;;;;;17.38;81.15;102159.78;5022617;28;19913;-42
2022/08/31 07:21:44;;;;;;;;;;;;;;;17.51;81.08;102154.69;5015609;28;19908;-45
2022/08/31 07:24:09;;;;;;;;;;;;;;;17.66;80.63;102155.63;5016792;28;20429;-42
2022/08/31 07:26:37;;;;;;;;;;;;;;;17.76;79.57;102154.59;5025447;28;19967;-41
2022/08/31 07:29:05;;;;;;;;;;;;;;;17.83;80.31;102150.16;5036495;28;20195;-47
2022/08/31 07:31:36;;;;;;;;;;;;;;;17.92;79.39;102151.81;5035896;28;19935;-47
2022/08/31 07:34:06;;;;;;;;;;;;;;;17.80;79.16;102147.81;5034909;28;19908;-43
2022/08/31 07:36:32;;;;;;;;;;;;;;;17.63;79.27;102149.75;5067808;28;19908;-46
2022/08/31 07:44:26;;;;;;;;;;;;;;;17.83;80.00;102150.97;5036177;28;19919;-42
2022/08/31 07:46:54;;;;;;;;;;;;;;;18.00;79.77;102153.63;5035695;28;20311;-41
2022/08/31 07:49:20;;;;;;;;;;;;;;;18.13;78.71;102153.06;5036410;28;19908;-44
2022/08/31 07:51:49;;;;;;;;;;;;;;;18.25;77.86;102155.16;5035866;28;20027;-45
2022/08/31 07:54:19;;;;;;;;;;;;;;;18.43;78.01;102159.41;5036440;28;20362;-43
2022/08/31 07:56:45;;;;;;;;;;;;;;;18.57;77.71;102150.50;5035737;28;19909;-46
2022/08/31 07:59:11;;;;;;;;;;;;;;;18.68;76.28;102154.63;5035792;28;19912;-45
2022/08/31 08:01:39;;;;;;;;;;;;;;;18.75;75.68;102162.88;5034331;28;19909;-46
2022/08/31 08:04:05;;;;;;;;;;;;;;;18.83;76.27;102155.53;5035856;28;20043;-49
2022/08/31 08:06:30;;;;;;;;;;;;;;;18.90;76.41;102157.53;5035348;28;20031;-46
2022/08/31 08:09:05;;;;;;;;;;;;;;;18.99;76.23;102165.38;5030250;28;20015;-44
2022/08/31 08:11:31;;;;;;;;;;;;;;;19.08;75.84;102160.72;5033635;28;19948;-45
2022/08/31 08:13:57;;;;;;;;;;;;;;;19.18;75.01;102163.16;5035923;28;19956;-42
2022/08/31 08:16:23;;;;;;;;;;;;;;;19.23;75.19;102159.88;5033668;28;20390;-45
2022/08/31 08:18:48;;;;;;;;;;;;;;;19.33;75.29;102158.59;5036114;28;19931;-44
2022/08/31 08:21:13;;;;;;;;;;;;;;;19.42;75.39;102153.91;5035685;28;19909;-45
2022/08/31 08:23:38;;;;;;;;;;;;;;;19.51;74.98;102152.75;5035544;28;19991;-45
2022/08/31 08:26:07;;;;;;;;;;;;;;;19.62;74.29;102161.44;5020120;28;20149;-48
2022/08/31 08:28:33;;;;;;;;;;;;;;;19.80;74.82;102163.78;5036701;28;20283;-45
2022/08/31 08:30:59;;;;;;;;;;;;;;;19.85;74.39;102164.06;5035066;28;19908;-43
2022/08/31 08:33:27;;;;;;;;;;;;;;;19.87;73.92;102168.25;5036112;28;19909;-46
2022/08/31 08:35:55;;;;;;;;;;;;;;;19.94;72.80;102173.75;5034334;28;20125;-47
2022/08/31 08:38:20;;;;;;;;;;;;;;;19.86;72.75;102172.00;5036200;28;20248;-47
2022/08/31 08:40:46;;;;;;;;;;;;;;;19.88;73.14;102174.53;5035947;28;19920;-43
2022/08/31 08:43:14;;;;;;;;;;;;;;;19.97;74.43;102172.53;5035278;28;20163;-40
2022/08/31 08:45:41;;;;;;;;;;;;;;;20.12;72.83;102168.75;5034843;28;19936;-44
2022/08/31 08:48:10;;;;;;;;;;;;;;;20.25;73.79;102167.22;5035199;28;19975;-46
2022/08/31 08:50:36;;;;;;;;;;;;;;;20.48;73.19;102170.59;5033853;28;19951;-47
2022/08/31 08:53:03;;;;;;;;;;;;;;;20.74;72.02;102179.16;5035213;28;20240;-42
2022/08/31 08:55:38;;;;;;;;;;;;;;;20.83;72.05;102170.69;5035789;28;20399;-43
2022/08/31 08:58:06;;;;;;;;;;;;;;;20.86;70.08;102178.44;5030124;28;19952;-45
2022/08/31 09:00:33;;;;;;;;;;;;;;;20.90;70.93;102170.72;5035024;28;20235;-45
2022/08/31 09:03:19;;;;;;;;;;;;;;;20.97;70.51;102173.50;5034225;28;20651;-46
2022/08/31 09:05:52;;;;;;;;;;;;;;;21.07;70.02;102173.16;5033075;28;19909;-47
2022/08/31 09:08:23;;;;;;;;;;;;;;;21.01;69.31;102172.06;5015680;28;19917;-44
2022/08/31 09:11:01;;;;;;;;;;;;;;;21.08;68.44;102166.66;5014730;28;20007;-43
2022/08/31 09:13:29;;;;;;;;;;;;;;;21.10;68.38;102168.16;5014826;28;19915;-44
2022/08/31 09:16:03;;;;;;;;;;;;;;;21.28;68.17;102174.94;5014833;28;20449;-46
2022/08/31 09:18:35;;;;;;;;;;;;;;;21.42;67.97;102168.56;5019021;28;19993;-46
2022/08/31 09:21:03;;;;;;;;;;;;;;;21.54;68.23;102168.88;5018852;28;20096;-45
2022/08/31 09:23:31;;;;;;;;;;;;;;;21.63;68.72;102166.81;5019431;28;20136;-46
2022/08/31 09:25:57;;;;;;;;;;;;;;;21.54;68.11;102166.97;5023539;28;19909;-46
2022/08/31 09:28:33;;;;;;;;;;;;;;;21.53;67.43;102169.91;5036077;28;19908;-46
2022/08/31 09:30:59;;;;;;;;;;;;;;;21.50;67.64;102164.84;5020290;28;19912;-46
2022/08/31 09:33:27;;;;;;;;;;;;;;;21.40;67.89;102160.63;5021299;28;19909;-45
2022/08/31 09:35:57;;;;;;;;;;;;;;;21.29;68.66;102163.06;5017682;28;20008;-48
2022/08/31 09:38:27;;;;;;;;;;;;;;;21.30;69.54;102167.44;5019264;28;20288;-45
2022/08/31 09:40:53;;;;;;;;;;;;;;;21.48;68.98;102169.66;5017674;28;19909;-44
2022/08/31 09:43:37;;;;;;;;;;;;;;;21.53;68.69;102167.19;5022051;28;19912;-45
2022/08/31 09:46:07;;;;;;;;;;;;;;;21.48;67.11;102158.78;5028553;28;20276;-46
2022/08/31 09:48:42;;;;;;;;;;;;;;;21.45;67.84;102168.13;5018387;28;20364;-46
2022/08/31 09:51:07;;;;;;;;;;;;;;;21.40;68.55;102167.91;5020391;28;20010;-43
2022/08/31 09:56:22;;;;;;;;;;;;;;;21.44;69.25;102171.91;5030246;28;20144;-43
2022/08/31 09:59:01;;;;;;;;;;;;;;;21.70;69.52;102168.50;5031953;28;19958;-44
2022/08/31 10:01:41;;;;;;;;;;;;;;;22.03;67.35;102166.94;5021069;28;20395;-47
2022/08/31 10:04:17;;;;;;;;;;;;;;;22.04;67.33;102165.91;5018535;28;20517;-43
2022/08/31 10:07:08;;;;;;;;;;;;;;;22.08;67.02;102159.00;5017609;28;19924;-47
2022/08/31 10:09:45;;;;;;;;;;;;;;;22.26;67.40;102156.53;5019883;28;19921;-46
2022/08/31 10:12:15;;;;;;;;;;;;;;;22.28;67.01;102153.63;5015089;28;19964;-44
2022/08/31 10:14:49;;;;;;;;;;;;;;;22.15;66.33;102152.53;5022956;28;19913;-44
2022/08/31 10:17:28;;;;;;;;;;;;;;;22.09;67.71;102157.97;5024002;28;20368;-43
2022/08/31 10:19:56;;;;;;;;;;;;;;;22.50;66.72;102154.28;5023545;28;19913;-43
2022/08/31 10:22:35;;;;;;;;;;;;;;;22.86;66.24;102155.72;5020115;28;20308;-46
2022/08/31 10:25:37;;;;;;;;;;;;;;;22.88;65.38;102157.19;5019738;28;19963;-44
2022/08/31 10:28:07;;;;;;;;;;;;;;;23.25;65.58;102154.00;5028982;28;20349;-46
2022/08/31 10:30:50;;;;;;;;;;;;;;;23.71;63.69;102144.84;5018932;28;20243;-44
2022/08/31 10:33:22;;;;;;;;;;;;;;;23.90;62.74;102148.53;5016916;28;19909;-45
2022/08/31 10:35:47;;;;;;;;;;;;;;;24.03;61.06;102147.59;5021667;28;19928;-44
2022/08/31 10:38:31;;;;;;;;;;;;;;;24.10;63.25;102142.97;5029546;28;19936;-48
2022/08/31 10:41:01;;;;;;;;;;;;;;;24.38;58.96;102141.69;5020058;28;19967;-46
2022/08/31 10:43:30;;;;;;;;;;;;;;;24.56;60.35;102144.53;5019569;28;19942;-43
2022/08/31 10:45:55;;;;;;;;;;;;;;;24.76;57.83;102140.78;5018985;28;19909;-46
2022/08/31 10:48:23;;;;;;;;;;;;;;;24.72;59.57;102143.13;5030406;28;19942;-45
2022/08/31 10:50:54;;;;;;;;;;;;;;;24.74;57.99;102145.63;5012788;28;19909;-46
2022/08/31 10:53:33;;;;;;;;;;;;;;;24.86;58.82;102135.63;5032084;28;20402;-46
2022/08/31 10:56:11;;;;;;;;;;;;;;;24.84;57.78;102150.59;5029913;28;19935;-43
2022/08/31 10:58:48;;;;;;;;;;;;;;;24.80;56.25;102131.06;5017184;28;19909;-44
2022/08/31 11:01:16;;;;;;;;;;;;;;;24.92;57.98;102134.72;5024551;28;19909;-43
2022/08/31 11:04:00;;;;;;;;;;;;;;;25.08;57.32;102138.75;5021749;28;20356;-43
2022/08/31 11:06:33;;;;;;;;;;;;;;;25.20;58.77;102129.81;5018114;28;19943;-44
2022/08/31 11:09:14;;;;;;;;;;;;;;;25.21;56.82;102135.06;5019615;28;20229;-45
2022/08/31 11:11:50;;;;;;;;;;;;;;;25.19;57.84;102133.63;5014749;28;19917;-45
2022/08/31 11:14:15;;;;;;;;;;;;;;;25.19;56.76;102131.72;5016133;28;19921;-45
2022/08/31 11:16:50;;;;;;;;;;;;;;;25.26;54.94;102137.16;5019988;28;20053;-42
2022/08/31 11:19:26;;;;;;;;;;;;;;;25.42;54.40;102133.78;5017133;28;19917;-43
2022/08/31 11:22:01;;;;;;;;;;;;;;;25.52;56.28;102140.63;5016810;28;19927;-42
2022/08/31 11:24:44;;;;;;;;;;;;;;;25.68;55.24;102131.78;5016607;28;19909;-45
2022/08/31 11:27:17;;;;;;;;;;;;;;;25.75;54.62;102135.25;5018756;28;20537;-44
2022/08/31 11:29:59;;;;;;;;;;;;;;;25.74;53.50;102132.75;5012929;28;20347;-43
2022/08/31 11:32:33;;;;;;;;;;;;;;;25.75;54.53;102131.69;5023448;28;19916;-44
2022/08/31 11:34:59;;;;;;;;;;;;;;;25.92;52.87;102124.50;5016240;28;20330;-43
2022/08/31 11:37:43;;;;;;;;;;;;;;;26.10;54.07;102122.78;5015582;28;20141;-46
2022/08/31 11:40:09;;;;;;;;;;;;;;;26.29;52.63;102124.38;5015965;28;19912;-44
2022/08/31 11:42:36;;;;;;;;;;;;;;;26.32;53.00;102114.84;5015439;28;20419;-44
2022/08/31 11:45:25;;;;;;;;;;;;;;;26.42;50.60;102117.84;5015852;28;19958;-44
2022/08/31 11:47:53;;;;;;;;;;;;;;;26.42;53.54;102104.97;5011614;28;19924;-46
2022/08/31 11:50:21;;;;;;;;;;;;;;;26.56;53.93;102102.84;5015814;28;20132;-44
2022/08/31 11:52:52;;;;;;;;;;;;;;;26.77;51.82;102115.16;5016332;28;20409;-47
2022/08/31 11:55:26;;;;;;;;;;;;;;;26.75;51.67;102103.59;5015931;28;19917;-46
2022/08/31 11:58:08;;;;;;;;;;;;;;;26.78;50.48;102100.38;5014027;28;20390;-47
2022/08/31 12:01:01;;;;;;;;;;;;;;;26.90;50.28;102105.84;5020210;28;19983;-49
2022/08/31 12:03:44;;;;;;;;;;;;;;;26.92;51.51;102100.13;5024540;28;19916;-44
2022/08/31 12:06:35;;;;;;;;;;;;;;;27.06;49.66;102087.81;5019383;28;19974;-46
2022/08/31 12:09:16;;;;;;;;;;;;;;;27.12;50.75;102091.47;5018508;28;19909;-47
2022/08/31 12:11:46;;;;;;;;;;;;;;;26.92;48.99;102092.72;5016439;28;19916;-44
2022/08/31 12:14:19;;;;;;;;;;;;;;;26.67;49.42;102090.25;5020701;28;19920;-48
2022/08/31 12:16:50;;;;;;;;;;;;;;;26.71;50.33;102091.41;5021454;28;19948;-45
2022/08/31 12:25:35;;;;;;;;;;;;;;;26.88;47.86;102069.59;5026807;28;20172;-45
2022/08/31 12:28:00;;;;;;;;;;;;;;;26.87;49.21;102078.06;5020477;28;20325;-45
2022/08/31 12:30:26;;;;;;;;;;;;;;;27.01;48.58;102075.91;5019864;28;19921;-47
2022/08/31 12:33:03;;;;;;;;;;;;;;;27.17;47.97;102075.13;5015835;28;20446;-43
2022/08/31 12:35:30;;;;;;;;;;;;;;;27.48;46.16;102068.41;5016834;28;20355;-45
2022/08/31 12:38:02;;;;;;;;;;;;;;;27.80;43.63;102072.53;5025627;28;20023;-43
2022/08/31 12:40:48;;;;;;;;;;;;;;;28.05;44.75;102080.41;5022028;28;19905;-44
2022/08/31 12:43:24;;;;;;;;;;;;;;;28.54;43.83;102074.31;5017490;28;19909;-45
2022/08/31 12:46:09;;;;;;;;;;;;;;;28.87;42.90;102067.09;5022642;28;19913;-47
2022/08/31 12:48:49;;;;;;;;;;;;;;;29.46;42.34;102067.28;5015766;28;20324;-45
2022/08/31 12:51:33;;;;;;;;;;;;;;;30.17;39.47;102057.22;5017633;28;19927;-44
2022/08/31 12:54:12;;;;;;;;;;;;;;;31.09;37.33;102057.78;5019448;28;19979;-45
2022/08/31 12:56:49;;;;;;;;;;;;;;;31.69;36.33;102060.16;5018070;28;19913;-45
2022/08/31 12:59:25;;;;;;;;;;;;;;;32.48;33.51;102055.97;5029867;28;20356;-46